sensor_id;sensor_type;location;lat;lon;timestamp;pressure;altitude;pressure_sealevel;temperature;humidity
16030;BME280;34770;49.272;11.070;2023-05-01T07:17:05;97526.66;;;13.46;49.78
16030;BME280;34770;49.272;11.070;2023-05-01T07:19:30;97521.72;;;13.75;49.32
16030;BME280;34770;49.272;11.070;2023-05-01T07:21:56;97519.88;;;13.83;49.22
16030;BME280;34770;49.272;11.070;2023-05-01T07:24:21;97517.69;;;13.95;49.97
16030;BME280;34770;49.272;11.070;2023-05-01T07:26:47;97501.22;;;14.05;48.12
16030;BME280;34770;49.272;11.070;2023-05-01T07:29:13;97500.41;;;13.70;48.39
16030;BME280;34770;49.272;11.070;2023-05-01T07:31:40;97493.00;;;13.88;47.57
16030;BME280;34770;49.272;11.070;2023-05-01T07:34:06;97511.19;;;13.80;48.51
16030;BME280;34770;49.272;11.070;2023-05-01T07:36:31;97506.31;;;14.00;49.36
16030;BME280;34770;49.272;11.070;2023-05-01T07:38:58;97487.88;;;13.85;48.54
16030;BME280;34770;49.272;11.070;2023-05-01T07:41:23;97489.97;;;14.00;47.90
16030;BME280;34770;49.272;11.070;2023-05-01T07:43:49;97500.41;;;14.12;47.69
16030;BME280;34770;49.272;11.070;2023-05-01T07:46:15;97503.44;;;14.09;46.97
16030;BME280;34770;49.272;11.070;2023-05-01T07:48:41;97496.13;;;14.10;47.16
16030;BME280;34770;49.272;11.070;2023-05-01T07:51:06;97501.91;;;14.07;47.41
16030;BME280;34770;49.272;11.070;2023-05-01T07:53:32;97499.06;;;14.16;47.04
16030;BME280;34770;49.272;11.070;2023-05-01T07:56:05;97491.34;;;14.04;47.54
16030;BME280;34770;49.272;11.070;2023-05-01T07:58:31;97491.03;;;14.15;48.38
16030;BME280;34770;49.272;11.070;2023-05-01T08:00:57;97487.38;;;14.40;48.05
16030;BME280;34770;49.272;11.070;2023-05-01T08:03:22;97485.63;;;14.23;47.15
16030;BME280;34770;49.272;11.070;2023-05-01T08:05:47;97489.59;;;14.36;46.44
16030;BME280;34770;49.272;11.070;2023-05-01T08:08:13;97482.84;;;14.73;46.09
16030;BME280;34770;49.272;11.070;2023-05-01T08:10:44;97484.69;;;14.88;46.29
16030;BME280;34770;49.272;11.070;2023-05-01T08:13:10;97484.19;;;15.09;45.07
16030;BME280;34770;49.272;11.070;2023-05-01T08:15:35;97481.13;;;15.04;44.89
16030;BME280;34770;49.272;11.070;2023-05-01T08:18:03;97497.50;;;15.12;45.73
16030;BME280;34770;49.272;11.070;2023-05-01T08:20:28;97492.16;;;14.46;45.75
16030;BME280;34770;49.272;11.070;2023-05-01T08:22:54;97498.00;;;14.51;47.06
16030;BME280;34770;49.272;11.070;2023-05-01T08:25:20;97490.22;;;14.22;47.13
16030;BME280;34770;49.272;11.070;2023-05-01T08:27:45;97501.28;;;14.21;47.12
16030;BME280;34770;49.272;11.070;2023-05-01T08:30:11;97496.97;;;14.02;46.74
16030;BME280;34770;49.272;11.070;2023-05-01T08:32:36;97483.84;;;13.98;47.76
16030;BME280;34770;49.272;11.070;2023-05-01T08:35:01;97501.44;;;14.11;48.40
16030;BME280;34770;49.272;11.070;2023-05-01T08:37:27;97484.47;;;13.83;48.03
16030;BME280;34770;49.272;11.070;2023-05-01T08:39:52;97498.69;;;14.03;48.18
16030;BME280;34770;49.272;11.070;2023-05-01T08:42:18;97489.19;;;14.23;48.23
16030;BME280;34770;49.272;11.070;2023-05-01T08:44:44;97489.69;;;14.19;48.51
16030;BME280;34770;49.272;11.070;2023-05-01T08:47:14;97457.25;;;13.83;48.69
16030;BME280;34770;49.272;11.070;2023-05-01T08:49:41;97497.00;;;14.18;48.88
16030;BME280;34770;49.272;11.070;2023-05-01T08:52:07;97492.59;;;14.17;48.51
16030;BME280;34770;49.272;11.070;2023-05-01T08:54:35;97494.13;;;14.12;47.76
16030;BME280;34770;49.272;11.070;2023-05-01T08:57:05;97492.75;;;14.16;48.04
16030;BME280;34770;49.272;11.070;2023-05-01T08:59:34;97486.78;;;14.12;46.96
16030;BME280;34770;49.272;11.070;2023-05-01T09:02:01;97492.22;;;14.12;47.40
16030;BME280;34770;49.272;11.070;2023-05-01T09:04:31;97485.88;;;14.04;47.07
16030;BME280;34770;49.272;11.070;2023-05-01T09:06:58;97490.22;;;14.14;48.25
16030;BME280;34770;49.272;11.070;2023-05-01T09:09:25;97497.94;;;14.35;49.04
16030;BME280;34770;49.272;11.070;2023-05-01T09:11:53;97492.88;;;14.48;49.07
16030;BME280;34770;49.272;11.070;2023-05-01T09:14:20;97495.00;;;14.20;47.25
16030;BME280;34770;49.272;11.070;2023-05-01T09:16:45;97488.66;;;14.12;49.78
16030;BME280;34770;49.272;11.070;2023-05-01T09:19:10;97497.94;;;14.35;48.13
16030;BME280;34770;49.272;11.070;2023-05-01T09:21:36;97500.13;;;14.31;49.24
16030;BME280;34770;49.272;11.070;2023-05-01T09:24:01;97502.25;;;14.45;51.20
16030;BME280;34770;49.272;11.070;2023-05-01T09:26:27;97504.78;;;14.55;49.72
16030;BME280;34770;49.272;11.070;2023-05-01T09:28:52;97497.88;;;14.27;51.22
16030;BME280;34770;49.272;11.070;2023-05-01T09:31:29;97487.81;;;14.19;49.81
16030;BME280;34770;49.272;11.070;2023-05-01T09:34:03;97502.59;;;14.01;49.55
16030;BME280;34770;49.272;11.070;2023-05-01T09:36:31;97491.72;;;14.09;52.30
16030;BME280;34770;49.272;11.070;2023-05-01T09:38:57;97501.44;;;14.11;50.78
16030;BME280;34770;49.272;11.070;2023-05-01T09:41:25;97508.53;;;13.96;52.61
16030;BME280;34770;49.272;11.070;2023-05-01T09:43:55;97502.41;;;13.60;53.80
16030;BME280;34770;49.272;11.070;2023-05-01T09:46:22;97500.22;;;13.64;58.08
16030;BME280;34770;49.272;11.070;2023-05-01T09:48:56;97491.19;;;13.29;55.53
16030;BME280;34770;49.272;11.070;2023-05-01T09:53:51;97518.66;;;13.01;59.24
16030;BME280;34770;49.272;11.070;2023-05-01T09:56:18;97513.09;;;12.85;60.26
16030;BME280;34770;49.272;11.070;2023-05-01T09:58:43;97518.91;;;12.72;61.59
16030;BME280;34770;49.272;11.070;2023-05-01T10:01:09;97506.72;;;12.58;63.17
16030;BME280;34770;49.272;11.070;2023-05-01T10:03:34;97523.19;;;12.39;63.34
16030;BME280;34770;49.272;11.070;2023-05-01T10:06:00;97531.41;;;12.30;64.57
16030;BME280;34770;49.272;11.070;2023-05-01T10:08:46;97529.53;;;12.12;65.73
16030;BME280;34770;49.272;11.070;2023-05-01T10:11:12;97526.69;;;12.04;65.18
16030;BME280;34770;49.272;11.070;2023-05-01T10:13:37;97508.16;;;11.36;67.06
16030;BME280;34770;49.272;11.070;2023-05-01T10:16:03;97523.91;;;11.59;68.11
16030;BME280;34770;49.272;11.070;2023-05-01T10:18:34;97544.47;;;11.62;69.35
16030;BME280;34770;49.272;11.070;2023-05-01T10:20:59;97540.22;;;11.50;70.05
16030;BME280;34770;49.272;11.070;2023-05-01T10:23:25;97544.88;;;11.30;69.86
16030;BME280;34770;49.272;11.070;2023-05-01T10:25:54;97525.66;;;11.04;69.25
16030;BME280;34770;49.272;11.070;2023-05-01T10:28:20;97525.13;;;10.91;71.74
16030;BME280;34770;49.272;11.070;2023-05-01T10:30:47;97535.88;;;11.20;71.92
16030;BME280;34770;49.272;11.070;2023-05-01T10:33:13;97538.88;;;11.27;71.89
16030;BME280;34770;49.272;11.070;2023-05-01T10:35:39;97529.09;;;11.43;71.66
16030;BME280;34770;49.272;11.070;2023-05-01T10:38:09;97545.16;;;11.27;71.18
16030;BME280;34770;49.272;11.070;2023-05-01T10:43:14;97537.91;;;11.18;71.91
16030;BME280;34770;49.272;11.070;2023-05-01T10:45:41;97535.34;;;11.17;71.37
16030;BME280;34770;49.272;11.070;2023-05-01T10:48:07;97525.94;;;11.01;72.94
16030;BME280;34770;49.272;11.070;2023-05-01T10:50:33;97533.34;;;11.19;72.64
16030;BME280;34770;49.272;11.070;2023-05-01T10:55:41;97533.34;;;11.19;71.27
16030;BME280;34770;49.272;11.070;2023-05-01T10:58:07;97531.09;;;10.95;72.29
16030;BME280;34770;49.272;11.070;2023-05-01T11:00:33;97522.19;;;11.22;71.58
16030;BME280;34770;49.272;11.070;2023-05-01T11:08:32;97520.00;;;11.35;69.89
16030;BME280;34770;49.272;11.070;2023-05-01T11:13:58;97523.31;;;11.29;70.66
16030;BME280;34770;49.272;11.070;2023-05-01T11:19:10;97517.66;;;11.49;70.64
16030;BME280;34770;49.272;11.070;2023-05-01T11:21:38;97512.91;;;11.61;69.73
16030;BME280;34770;49.272;11.070;2023-05-01T11:24:08;97512.53;;;11.83;70.28
16030;BME280;34770;49.272;11.070;2023-05-01T11:26:38;97514.88;;;11.78;68.41
16030;BME280;34770;49.272;11.070;2023-05-01T11:29:05;97496.94;;;11.58;68.99
16030;BME280;34770;49.272;11.070;2023-05-01T11:31:31;97511.75;;;11.63;70.03
16030;BME280;34770;49.272;11.070;2023-05-01T11:34:00;97513.19;;;11.95;68.27
16030;BME280;34770;49.272;11.070;2023-05-01T11:36:26;97503.06;;;12.14;69.11
16030;BME280;34770;49.272;11.070;2023-05-01T11:38:53;97505.66;;;12.34;67.68
16030;BME280;34770;49.272;11.070;2023-05-01T11:41:24;97504.34;;;12.38;66.48
16030;BME280;34770;49.272;11.070;2023-05-01T11:46:31;97498.72;;;12.21;65.37
16030;BME280;34770;49.272;11.070;2023-05-01T11:49:01;97476.28;;;12.19;64.18
16030;BME280;34770;49.272;11.070;2023-05-01T11:51:27;97496.19;;;12.38;64.99
16030;BME280;34770;49.272;11.070;2023-05-01T11:56:25;97480.41;;;12.76;65.66
16030;BME280;34770;49.272;11.070;2023-05-01T11:58:52;97480.34;;;12.68;64.56
16030;BME280;34770;49.272;11.070;2023-05-01T12:01:18;97500.06;;;13.14;65.01
16030;BME280;34770;49.272;11.070;2023-05-01T12:03:43;97496.22;;;13.50;63.25
16030;BME280;34770;49.272;11.070;2023-05-01T12:06:10;97498.50;;;13.63;62.77
16030;BME280;34770;49.272;11.070;2023-05-01T12:08:46;97497.97;;;13.33;62.45
16030;BME280;34770;49.272;11.070;2023-05-01T12:11:12;97493.69;;;13.23;64.13
16030;BME280;34770;49.272;11.070;2023-05-01T12:13:39;97504.91;;;13.28;63.00
16030;BME280;34770;49.272;11.070;2023-05-01T12:16:05;97480.47;;;13.70;64.15
16030;BME280;34770;49.272;11.070;2023-05-01T12:18:31;97498.47;;;13.88;62.42
16030;BME280;34770;49.272;11.070;2023-05-01T12:20:56;97494.69;;;13.89;61.51
16030;BME280;34770;49.272;11.070;2023-05-01T12:23:33;97493.16;;;13.53;62.95
16030;BME280;34770;49.272;11.070;2023-05-01T12:26:00;97473.97;;;13.97;63.64
16030;BME280;34770;49.272;11.070;2023-05-01T12:28:27;97463.66;;;13.66;60.42
16030;BME280;34770;49.272;11.070;2023-05-01T12:31:00;97422.94;;;13.65;61.53
16030;BME280;34770;49.272;11.070;2023-05-01T12:33:26;97489.47;;;14.78;61.22
16030;BME280;34770;49.272;11.070;2023-05-01T12:35:51;97487.56;;;15.19;61.21
16030;BME280;34770;49.272;11.070;2023-05-01T12:38:20;97488.59;;;15.34;60.36
16030;BME280;34770;49.272;11.070;2023-05-01T12:40:51;97489.56;;;15.65;57.35
16030;BME280;34770;49.272;11.070;2023-05-01T12:43:19;97488.31;;;15.76;56.16
16030;BME280;34770;49.272;11.070;2023-05-01T12:45:49;97479.38;;;15.35;55.08
16030;BME280;34770;49.272;11.070;2023-05-01T12:48:15;97465.31;;;15.71;57.67
16030;BME280;34770;49.272;11.070;2023-05-01T12:50:41;97477.75;;;16.12;58.25
16030;BME280;34770;49.272;11.070;2023-05-01T12:53:07;97477.75;;;16.43;55.94
16030;BME280;34770;49.272;11.070;2023-05-01T12:55:44;97442.41;;;16.10;58.77
16030;BME280;34770;49.272;11.070;2023-05-01T12:58:10;97473.38;;;15.95;53.86
16030;BME280;34770;49.272;11.070;2023-05-01T13:00:49;97477.75;;;16.12;55.13
16030;BME280;34770;49.272;11.070;2023-05-01T13:03:22;97470.25;;;16.06;53.80
16030;BME280;34770;49.272;11.070;2023-05-01T13:05:54;97470.75;;;16.09;52.81
16030;BME280;34770;49.272;11.070;2023-05-01T13:08:36;97456.78;;;16.35;54.89
16030;BME280;34770;49.272;11.070;2023-05-01T13:11:21;97470.13;;;17.06;54.85
16030;BME280;34770;49.272;11.070;2023-05-01T13:13:48;97463.78;;;17.06;53.16
16030;BME280;34770;49.272;11.070;2023-05-01T13:18:42;97457.28;;;16.08;54.83
16030;BME280;34770;49.272;11.070;2023-05-01T13:21:10;97463.59;;;15.70;55.99
16030;BME280;34770;49.272;11.070;2023-05-01T13:23:38;97458.69;;;15.57;57.20
16030;BME280;34770;49.272;11.070;2023-05-01T13:26:06;97462.66;;;15.46;57.14
16030;BME280;34770;49.272;11.070;2023-05-01T13:28:34;97445.13;;;15.00;58.17
16030;BME280;34770;49.272;11.070;2023-05-01T13:30:59;97454.84;;;15.03;56.65
16030;BME280;34770;49.272;11.070;2023-05-01T13:33:25;97460.63;;;15.08;57.38
16030;BME280;34770;49.272;11.070;2023-05-01T13:35:52;97462.38;;;14.93;58.23
16030;BME280;34770;49.272;11.070;2023-05-01T13:38:17;97458.28;;;14.81;58.45
16030;BME280;34770;49.272;11.070;2023-05-01T13:40:47;97453.84;;;14.80;58.26
16030;BME280;34770;49.272;11.070;2023-05-01T13:43:13;97465.09;;;14.77;56.61
16030;BME280;34770;49.272;11.070;2023-05-01T13:45:41;97459.28;;;14.80;57.97
16030;BME280;34770;49.272;11.070;2023-05-01T13:48:08;97456.06;;;14.84;57.81
16030;BME280;34770;49.272;11.070;2023-05-01T13:50:33;97451.13;;;14.56;56.65
16030;BME280;34770;49.272;11.070;2023-05-01T13:52:59;97448.91;;;14.75;57.99
16030;BME280;34770;49.272;11.070;2023-05-01T13:55:25;97453.69;;;14.81;57.78
16030;BME280;34770;49.272;11.070;2023-05-01T13:57:51;97425.53;;;14.89;58.12
16030;BME280;34770;49.272;11.070;2023-05-01T14:00:17;97438.28;;;15.04;57.26
16030;BME280;34770;49.272;11.070;2023-05-01T14:02:45;97444.28;;;15.00;57.30
16030;BME280;34770;49.272;11.070;2023-05-01T14:05:13;97450.06;;;15.05;57.40
16030;BME280;34770;49.272;11.070;2023-05-01T14:07:44;97442.22;;;15.02;57.00
16030;BME280;34770;49.272;11.070;2023-05-01T14:10:12;97458.59;;;15.02;57.67
16030;BME280;34770;49.272;11.070;2023-05-01T14:12:38;97430.47;;;14.93;57.94
16030;BME280;34770;49.272;11.070;2023-05-01T14:15:08;97451.59;;;15.24;57.77
16030;BME280;34770;49.272;11.070;2023-05-01T14:17:35;97451.41;;;15.25;57.30
16030;BME280;34770;49.272;11.070;2023-05-01T14:20:02;97451.41;;;15.25;56.71
16030;BME280;34770;49.272;11.070;2023-05-01T14:22:35;97453.31;;;15.08;58.00
16030;BME280;34770;49.272;11.070;2023-05-01T14:25:05;97446.34;;;14.98;56.56
16030;BME280;34770;49.272;11.070;2023-05-01T14:27:32;97451.44;;;14.77;56.87
16030;BME280;34770;49.272;11.070;2023-05-01T14:29:57;97443.78;;;14.64;57.90
16030;BME280;34770;49.272;11.070;2023-05-01T14:32:24;97436.28;;;14.82;57.99
16030;BME280;34770;49.272;11.070;2023-05-01T14:34:50;97441.56;;;15.00;57.34
16030;BME280;34770;49.272;11.070;2023-05-01T14:37:16;97448.56;;;14.70;55.86
16030;BME280;34770;49.272;11.070;2023-05-01T14:39:42;97445.97;;;15.17;56.72
16030;BME280;34770;49.272;11.070;2023-05-01T14:42:09;97452.94;;;15.28;56.79
16030;BME280;34770;49.272;11.070;2023-05-01T14:44:38;97448.56;;;14.86;56.55
16030;BME280;34770;49.272;11.070;2023-05-01T14:47:07;97426.41;;;14.81;57.18
16030;BME280;34770;49.272;11.070;2023-05-01T14:49:33;97452.63;;;15.15;58.16
16030;BME280;34770;49.272;11.070;2023-05-01T14:51:59;97442.00;;;15.52;56.24
16030;BME280;34770;49.272;11.070;2023-05-01T14:54:25;97451.25;;;15.82;56.04
16030;BME280;34770;49.272;11.070;2023-05-01T14:56:51;97443.53;;;15.30;56.28
16030;BME280;34770;49.272;11.070;2023-05-01T14:59:16;97439.69;;;14.92;56.97
16030;BME280;34770;49.272;11.070;2023-05-01T15:01:42;97443.28;;;14.69;59.84
16030;BME280;34770;49.272;11.070;2023-05-01T15:04:08;97450.25;;;15.03;59.04
16030;BME280;34770;49.272;11.070;2023-05-01T15:06:35;97457.25;;;14.66;61.02
16030;BME280;34770;49.272;11.070;2023-05-01T15:09:00;97452.66;;;14.58;61.34
16030;BME280;34770;49.272;11.070;2023-05-01T15:11:26;97434.94;;;14.78;60.70
16030;BME280;34770;49.272;11.070;2023-05-01T15:13:52;97446.66;;;15.11;60.86
16030;BME280;34770;49.272;11.070;2023-05-01T15:16:19;97451.94;;;14.40;61.17
16030;BME280;34770;49.272;11.070;2023-05-01T15:18:45;97456.75;;;14.78;61.86
16030;BME280;34770;49.272;11.070;2023-05-01T15:21:10;97457.13;;;14.01;61.61
16030;BME280;34770;49.272;11.070;2023-05-01T15:23:36;97460.31;;;14.38;61.23
16030;BME280;34770;49.272;11.070;2023-05-01T15:26:02;97446.19;;;14.51;62.18
16030;BME280;34770;49.272;11.070;2023-05-01T15:28:28;97454.22;;;14.85;60.86
16030;BME280;34770;49.272;11.070;2023-05-01T15:30:53;97458.25;;;15.21;59.45
16030;BME280;34770;49.272;11.070;2023-05-01T15:33:19;97464.75;;;15.12;59.63
16030;BME280;34770;49.272;11.070;2023-05-01T15:35:45;97452.81;;;14.97;59.62
16030;BME280;34770;49.272;11.070;2023-05-01T15:38:11;97444.59;;;15.21;59.29
16030;BME280;34770;49.272;11.070;2023-05-01T15:40:37;97444.50;;;15.61;59.15
16030;BME280;34770;49.272;11.070;2023-05-01T15:43:03;97444.75;;;15.28;58.77
16030;BME280;34770;49.272;11.070;2023-05-01T15:45:30;97468.47;;;15.35;58.41
16030;BME280;34770;49.272;11.070;2023-05-01T15:47:56;97456.00;;;15.49;58.57
16030;BME280;34770;49.272;11.070;2023-05-01T15:50:21;97457.34;;;15.53;58.70
16030;BME280;34770;49.272;11.070;2023-05-01T15:52:51;97466.44;;;15.13;58.40
16030;BME280;34770;49.272;11.070;2023-05-01T15:55:18;97453.66;;;15.05;59.41
16030;BME280;34770;49.272;11.070;2023-05-01T15:57:44;97461.34;;;14.62;59.59
16030;BME280;34770;49.272;11.070;2023-05-01T16:00:14;97464.03;;;15.26;59.02
16030;BME280;34770;49.272;11.070;2023-05-01T16:02:41;97456.38;;;15.14;59.87
16030;BME280;34770;49.272;11.070;2023-05-01T16:05:10;97461.25;;;15.42;57.33
16030;BME280;34770;49.272;11.070;2023-05-01T16:07:42;97465.22;;;15.32;57.74
16030;BME280;34770;49.272;11.070;2023-05-01T16:10:12;97462.63;;;14.17;60.55
16030;BME280;34770;49.272;11.070;2023-05-01T16:12:38;97467.47;;;14.80;60.56
16030;BME280;34770;49.272;11.070;2023-05-01T16:15:08;97470.00;;;15.14;59.35
16030;BME280;34770;49.272;11.070;2023-05-01T16:17:42;97468.84;;;14.92;58.92
16030;BME280;34770;49.272;11.070;2023-05-01T16:20:13;97475.13;;;14.68;61.23
16030;BME280;34770;49.272;11.070;2023-05-01T16:22:39;97458.97;;;14.67;60.27
16030;BME280;34770;49.272;11.070;2023-05-01T16:25:06;97477.00;;;15.08;60.34
16030;BME280;34770;49.272;11.070;2023-05-01T16:27:40;97462.69;;;14.74;59.21
16030;BME280;34770;49.272;11.070;2023-05-01T16:30:11;97472.22;;;14.37;60.55
16030;BME280;34770;49.272;11.070;2023-05-01T16:32:39;97468.28;;;15.29;59.15
16030;BME280;34770;49.272;11.070;2023-05-01T16:35:05;97473.22;;;15.57;57.53
16030;BME280;34770;49.272;11.070;2023-05-01T16:37:34;97469.63;;;15.96;56.00
16030;BME280;34770;49.272;11.070;2023-05-01T16:39:59;97475.50;;;15.85;56.14
16030;BME280;34770;49.272;11.070;2023-05-01T16:42:25;97469.34;;;14.79;59.37
16030;BME280;34770;49.272;11.070;2023-05-01T16:44:50;97476.59;;;14.22;60.29
16030;BME280;34770;49.272;11.070;2023-05-01T16:47:16;97462.34;;;14.44;59.66
16030;BME280;34770;49.272;11.070;2023-05-01T16:49:42;97458.97;;;14.42;60.01
16030;BME280;34770;49.272;11.070;2023-05-01T16:52:08;97473.88;;;14.30;60.01
16030;BME280;34770;49.272;11.070;2023-05-01T16:54:38;97459.09;;;14.41;60.13
16030;BME280;34770;49.272;11.070;2023-05-01T16:57:04;97475.47;;;14.57;59.78
16030;BME280;34770;49.272;11.070;2023-05-01T16:59:30;97479.25;;;14.72;59.83
16030;BME280;34770;49.272;11.070;2023-05-01T17:01:55;97484.38;;;14.83;59.69
16030;BME280;34770;49.272;11.070;2023-05-01T17:04:21;97479.25;;;14.56;59.95
16030;BME280;34770;49.272;11.070;2023-05-01T17:06:47;97476.59;;;14.22;60.09
16030;BME280;34770;49.272;11.070;2023-05-01T17:09:13;97478.19;;;14.41;60.83
16030;BME280;34770;49.272;11.070;2023-05-01T17:11:41;97482.31;;;14.53;59.74
16030;BME280;34770;49.272;11.070;2023-05-01T17:14:07;97479.06;;;14.58;60.03
16030;BME280;34770;49.272;11.070;2023-05-01T17:16:32;97482.13;;;14.46;60.65
16030;BME280;34770;49.272;11.070;2023-05-01T17:18:58;97485.66;;;14.31;59.97
16030;BME280;34770;49.272;11.070;2023-05-01T17:21:26;97496.63;;;14.05;59.88
16030;BME280;34770;49.272;11.070;2023-05-01T17:23:51;97491.09;;;14.23;60.73
16030;BME280;34770;49.272;11.070;2023-05-01T17:26:17;97494.75;;;13.56;61.32
16030;BME280;34770;49.272;11.070;2023-05-01T17:32:33;97499.59;;;13.44;62.76
16030;BME280;34770;49.272;11.070;2023-05-01T17:42:14;97503.56;;;13.24;64.43
16030;BME280;34770;49.272;11.070;2023-05-01T17:48:50;97442.41;;;12.67;64.38
16030;BME280;34770;49.272;11.070;2023-05-01T17:51:16;97471.41;;;13.02;64.09
16030;BME280;34770;49.272;11.070;2023-05-01T17:53:42;97427.94;;;12.84;64.50
16030;BME280;34770;49.272;11.070;2023-05-01T17:56:08;97438.88;;;12.92;65.37
16030;BME280;34770;49.272;11.070;2023-05-01T17:58:34;97427.75;;;12.86;64.69
16030;BME280;34770;49.272;11.070;2023-05-01T18:01:00;97517.03;;;13.33;65.41
16030;BME280;34770;49.272;11.070;2023-05-01T18:03:26;97448.63;;;12.77;65.82
16030;BME280;34770;49.272;11.070;2023-05-01T18:05:51;97437.91;;;12.75;65.64
16030;BME280;34770;49.272;11.070;2023-05-01T18:08:17;97472.34;;;12.93;66.52
16030;BME280;34770;49.272;11.070;2023-05-01T18:10:42;97473.56;;;12.55;66.00
16030;BME280;34770;49.272;11.070;2023-05-01T18:13:08;97444.56;;;12.38;66.83
16030;BME280;34770;49.272;11.070;2023-05-01T18:15:33;97460.09;;;12.45;67.31
16030;BME280;34770;49.272;11.070;2023-05-01T18:17:59;97473.13;;;12.42;66.37
16030;BME280;34770;49.272;11.070;2023-05-01T18:20:25;97465.59;;;12.36;67.68
16030;BME280;34770;49.272;11.070;2023-05-01T18:22:50;97490.97;;;12.27;68.98
16030;BME280;34770;49.272;11.070;2023-05-01T18:25:17;97461.63;;;11.95;68.43
16030;BME280;34770;49.272;11.070;2023-05-01T18:27:43;97482.94;;;11.90;68.88
16030;BME280;34770;49.272;11.070;2023-05-01T18:30:09;97459.03;;;11.66;68.44
16030;BME280;34770;49.272;11.070;2023-05-01T18:32:35;97514.34;;;11.92;69.46
16030;BME280;34770;49.272;11.070;2023-05-01T18:35:01;97482.97;;;11.53;68.97
16030;BME280;34770;49.272;11.070;2023-05-01T18:37:29;97490.81;;;11.56;69.73
16030;BME280;34770;49.272;11.070;2023-05-01T18:39:55;97476.13;;;11.49;69.75
16030;BME280;34770;49.272;11.070;2023-05-01T18:42:20;97506.88;;;11.67;70.08
16030;BME280;34770;49.272;11.070;2023-05-01T18:44:46;97499.47;;;11.59;70.59
16030;BME280;34770;49.272;11.070;2023-05-01T18:47:11;97503.34;;;11.57;70.47
16030;BME280;34770;49.272;11.070;2023-05-01T18:49:36;97509.50;;;11.59;69.97
16030;BME280;34770;49.272;11.070;2023-05-01T18:52:02;97545.00;;;11.65;70.67
16030;BME280;34770;49.272;11.070;2023-05-01T18:54:28;97500.91;;;11.27;71.00
16030;BME280;34770;49.272;11.070;2023-05-01T18:56:54;97505.34;;;11.18;70.76
16030;BME280;34770;49.272;11.070;2023-05-01T18:59:19;97504.66;;;11.06;71.45
16030;BME280;34770;49.272;11.070;2023-05-01T19:01:46;97496.81;;;11.03;71.07
16030;BME280;34770;49.272;11.070;2023-05-01T19:04:14;97554.28;;;11.36;70.92
16030;BME280;34770;49.272;11.070;2023-05-01T19:06:39;97506.59;;;10.77;71.96
16030;BME280;34770;49.272;11.070;2023-05-01T19:09:05;97560.19;;;11.02;71.51
16030;BME280;34770;49.272;11.070;2023-05-01T19:11:31;97567.19;;;11.05;71.59
16030;BME280;34770;49.272;11.070;2023-05-01T19:13:57;97555.75;;;11.01;72.22
16030;BME280;34770;49.272;11.070;2023-05-01T19:18:51;97594.56;;;10.92;71.45
16030;BME280;34770;49.272;11.070;2023-05-01T19:21:17;97592.16;;;10.80;71.64
16030;BME280;34770;49.272;11.070;2023-05-01T19:23:42;97571.34;;;10.52;72.48
16030;BME280;34770;49.272;11.070;2023-05-01T19:26:09;97608.13;;;10.54;72.90
16030;BME280;34770;49.272;11.070;2023-05-01T19:28:37;97596.84;;;10.49;73.00
16030;BME280;34770;49.272;11.070;2023-05-01T19:31:02;97560.75;;;10.20;72.85
16030;BME280;34770;49.272;11.070;2023-05-01T19:33:27;97546.44;;;9.99;72.76
16030;BME280;34770;49.272;11.070;2023-05-01T19:35:54;97607.78;;;10.28;73.45
16030;BME280;34770;49.272;11.070;2023-05-01T19:38:20;97607.94;;;10.27;73.47
16030;BME280;34770;49.272;11.070;2023-05-01T19:40:45;97599.66;;;10.19;73.78
16030;BME280;34770;49.272;11.070;2023-05-01T19:43:10;97608.78;;;10.27;74.24
16030;BME280;34770;49.272;11.070;2023-05-01T19:45:39;97587.69;;;10.21;74.17
16030;BME280;34770;49.272;11.070;2023-05-01T19:48:04;97612.34;;;10.28;74.05
16030;BME280;34770;49.272;11.070;2023-05-01T19:50:31;97609.47;;;10.20;74.95
16030;BME280;34770;49.272;11.070;2023-05-01T19:52:56;97617.03;;;10.26;74.77
16030;BME280;34770;49.272;11.070;2023-05-01T19:55:23;97601.06;;;10.23;74.12
16030;BME280;34770;49.272;11.070;2023-05-01T19:57:49;97615.22;;;10.36;74.16
16030;BME280;34770;49.272;11.070;2023-05-01T20:00:16;97616.66;;;10.40;74.31
16030;BME280;34770;49.272;11.070;2023-05-01T20:02:41;97607.63;;;10.20;74.25
16030;BME280;34770;49.272;11.070;2023-05-01T20:05:07;97619.91;;;10.24;74.65
16030;BME280;34770;49.272;11.070;2023-05-01T20:07:33;97628.59;;;10.28;74.12
16030;BME280;34770;49.272;11.070;2023-05-01T20:09:59;97626.91;;;10.27;74.01
16030;BME280;34770;49.272;11.070;2023-05-01T20:12:24;97631.84;;;10.22;74.30
16030;BME280;34770;49.272;11.070;2023-05-01T20:14:50;97597.88;;;10.08;74.30
16030;BME280;34770;49.272;11.070;2023-05-01T20:17:16;97638.28;;;10.30;74.09
16030;BME280;34770;49.272;11.070;2023-05-01T20:19:41;97634.59;;;10.31;73.59
16030;BME280;34770;49.272;11.070;2023-05-01T20:22:07;97644.56;;;10.21;74.18
16030;BME280;34770;49.272;11.070;2023-05-01T20:24:32;97651.66;;;10.22;74.91
16030;BME280;34770;49.272;11.070;2023-05-01T20:26:58;97643.38;;;10.14;74.52
16030;BME280;34770;49.272;11.070;2023-05-01T20:29:26;97646.50;;;10.19;74.57
16030;BME280;34770;49.272;11.070;2023-05-01T20:31:52;97644.81;;;10.18;74.27
16030;BME280;34770;49.272;11.070;2023-05-01T20:34:18;97646.56;;;9.99;74.59
16030;BME280;34770;49.272;11.070;2023-05-01T20:36:43;97646.47;;;10.10;75.21
16030;BME280;34770;49.272;11.070;2023-05-01T20:39:09;97644.38;;;10.13;74.84
16030;BME280;34770;49.272;11.070;2023-05-01T20:41:34;97633.22;;;10.07;74.69
16030;BME280;34770;49.272;11.070;2023-05-01T20:44:00;97647.66;;;10.17;74.98
16030;BME280;34770;49.272;11.070;2023-05-01T20:46:26;97645.53;;;10.20;74.54
16030;BME280;34770;49.272;11.070;2023-05-01T20:48:52;97657.63;;;10.16;74.57